Time;durP1;ratioP1;P1;durP2;ratioP2;P2;SDS_P1;SDS_P2;PMS_P1;PMS_P2;Temp;Humidity;BMP_temperature;BMP_pressure;BME280_temperature;BME280_humidity;BME280_pressure;Samples;Min_cycle;Max_cycle;Signal;HPM_P1;HPM_P2
2022/10/23 00:01:31;;;;;;;3.40;2.27;;;20.00;99.90;;;;;;5093774;28;20314;-75
2022/10/23 00:04:06;;;;;;;5.00;2.40;;;20.00;99.90;;;;;;5095083;28;20245;-75
2022/10/23 00:06:35;;;;;;;5.20;2.30;;;20.10;99.90;;;;;;5083922;28;20214;-77
2022/10/23 00:09:05;;;;;;;3.70;2.20;;;20.10;99.90;;;;;;5081190;28;20353;-75
2022/10/23 00:11:33;;;;;;;3.57;2.70;;;20.10;99.90;;;;;;5080730;28;20205;-76
2022/10/23 00:14:03;;;;;;;4.43;2.80;;;20.10;99.90;;;;;;5093507;28;20179;-76
2022/10/23 00:16:30;;;;;;;4.53;2.30;;;20.20;99.90;;;;;;5093437;28;20180;-74
2022/10/23 00:18:58;;;;;;;4.53;2.43;;;20.40;99.90;;;;;;5074559;28;20214;-73
2022/10/23 00:21:25;;;;;;;3.53;2.00;;;20.40;99.90;;;;;;5093180;28;20212;-76
2022/10/23 00:23:53;;;;;;;3.23;2.37;;;20.60;99.90;;;;;;5093243;28;20176;-74
2022/10/23 00:26:21;;;;;;;3.37;2.60;;;20.80;99.90;;;;;;5093173;28;20777;-74
2022/10/23 00:28:52;;;;;;;3.53;2.40;;;20.90;99.90;;;;;;5088827;28;20708;-74
2022/10/23 00:31:22;;;;;;;4.03;2.37;;;21.00;99.90;;;;;;5038344;28;20649;-75
2022/10/23 00:33:50;;;;;;;4.47;2.23;;;21.20;99.90;;;;;;5055321;28;20180;-74
2022/10/23 00:36:20;;;;;;;4.07;1.97;;;21.40;99.90;;;;;;5079069;28;20581;-76
2022/10/23 00:38:48;;;;;;;4.73;2.30;;;21.60;99.90;;;;;;5089025;28;20181;-75
2022/10/23 00:41:23;;;;;;;3.47;1.80;;;21.70;99.90;;;;;;5072060;28;20214;-74
2022/10/23 00:44:30;;;;;;;2.83;2.20;;;21.50;99.90;;;;;;5072588;28;20215;-71
2022/10/23 00:46:59;;;;;;;3.73;2.30;;;21.40;99.90;;;;;;5037657;28;20249;-75
2022/10/23 00:49:27;;;;;;;2.40;2.03;;;21.40;99.90;;;;;;5071512;28;20191;-75
2022/10/23 00:52:00;;;;;;;3.20;2.33;;;21.40;99.90;;;;;;5092026;28;20276;-75
2022/10/23 00:54:32;;;;;;;3.50;2.60;;;21.60;99.90;;;;;;5091738;28;20191;-74
2022/10/23 00:57:03;;;;;;;4.87;2.00;;;21.50;99.90;;;;;;5092144;28;20702;-74
2022/10/23 00:59:31;;;;;;;2.60;1.90;;;21.60;99.90;;;;;;5078692;28;20213;-72
2022/10/23 01:01:59;;;;;;;3.97;2.00;;;21.80;99.90;;;;;;5072023;28;20227;-73
2022/10/23 01:04:28;;;;;;;3.27;1.93;;;22.10;99.90;;;;;;5079684;28;20300;-75
2022/10/23 01:07:16;;;;;;;3.00;1.80;;;22.20;99.90;;;;;;5092253;28;20544;-74
2022/10/23 01:09:47;;;;;;;5.57;2.30;;;22.00;99.90;;;;;;5086924;28;20228;-75
2022/10/23 01:12:19;;;;;;;2.73;1.80;;;22.00;99.90;;;;;;5092368;28;20203;-76
2022/10/23 01:14:53;;;;;;;2.43;1.70;;;22.20;99.90;;;;;;5092426;28;20228;-75
2022/10/23 01:17:40;;;;;;;2.03;1.80;;;22.40;99.90;;;;;;5092215;28;20182;-75
2022/10/23 01:20:35;;;;;;;3.57;1.97;;;22.60;99.90;;;;;;5054005;28;20742;-75
2022/10/23 01:23:30;;;;;;;5.10;2.57;;;23.00;99.90;;;;;;5079485;28;20258;-75
2022/10/23 01:26:08;;;;;;;5.43;2.30;;;23.10;99.90;;;;;;5091756;28;20179;-72
2022/10/23 01:29:00;;;;;;;3.30;2.20;;;23.20;99.90;;;;;;5092080;28;20195;-72
2022/10/23 01:31:47;;;;;;;3.77;2.20;;;23.20;99.90;;;;;;5091961;28;20182;-72
2022/10/23 01:34:40;;;;;;;3.00;1.53;;;23.10;99.90;;;;;;5071883;28;20179;-72
2022/10/23 01:37:13;;;;;;;4.00;2.07;;;22.70;99.90;;;;;;5060846;28;20191;-75
2022/10/23 01:39:47;;;;;;;2.47;1.53;;;22.70;99.90;;;;;;5071762;28;20667;-73
2022/10/23 01:42:21;;;;;;;2.10;1.50;;;22.40;99.90;;;;;;5057292;28;20194;-72
2022/10/23 01:45:03;;;;;;;2.83;1.50;;;22.40;99.90;;;;;;5091809;28;20174;-75
2022/10/23 01:47:35;;;;;;;1.97;1.40;;;22.30;99.90;;;;;;5091537;28;20236;-74
2022/10/23 01:50:05;;;;;;;3.17;1.60;;;22.30;99.90;;;;;;5091615;28;20546;-70
2022/10/23 01:52:33;;;;;;;2.23;1.50;;;22.40;99.90;;;;;;5085646;28;20213;-74
2022/10/23 01:55:01;;;;;;;3.67;1.33;;;22.50;99.90;;;;;;5071590;28;20230;-74
2022/10/23 01:57:31;;;;;;;1.63;1.33;;;22.50;99.90;;;;;;5084137;28;20178;-74
2022/10/23 02:00:07;;;;;;;2.80;1.23;;;22.60;99.90;;;;;;5078869;28;20210;-72
2022/10/23 02:02:37;;;;;;;2.10;1.20;;;22.60;99.90;;;;;;5053367;28;20191;-74
2022/10/23 02:05:15;;;;;;;4.37;1.30;;;22.70;99.90;;;;;;5091739;28;20171;-72
2022/10/23 02:07:43;;;;;;;3.07;1.43;;;22.80;99.90;;;;;;5091581;28;20185;-74
2022/10/23 02:10:12;;;;;;;4.60;1.30;;;22.80;99.90;;;;;;5091728;28;20675;-73
2022/10/23 02:13:18;;;;;;;2.70;1.50;;;22.90;99.90;;;;;;5066266;28;20183;-73
2022/10/23 02:15:55;;;;;;;3.00;1.47;;;23.00;99.90;;;;;;5028623;28;20652;-72
2022/10/23 02:18:54;;;;;;;1.80;1.30;;;22.90;99.90;;;;;;5073051;28;20182;-71
2022/10/23 02:21:34;;;;;;;2.33;1.60;;;22.80;99.90;;;;;;5040325;28;20280;-72
2022/10/23 02:24:16;;;;;;;2.37;1.23;;;22.80;99.90;;;;;;5091375;28;20688;-72
2022/10/23 02:26:53;;;;;;;3.67;1.63;;;22.60;99.90;;;;;;5083774;28;20339;-70
2022/10/23 02:29:49;;;;;;;2.37;1.57;;;22.60;99.90;;;;;;5053541;28;20169;-73
2022/10/23 02:32:19;;;;;;;2.13;1.50;;;22.70;99.90;;;;;;5070033;28;20194;-72
2022/10/23 02:34:47;;;;;;;1.80;1.60;;;22.80;99.90;;;;;;5070893;28;20193;-72
2022/10/23 02:37:15;;;;;;;2.27;1.77;;;22.90;99.90;;;;;;5072215;28;20239;-73
2022/10/23 02:39:42;;;;;;;2.03;1.40;;;22.90;99.90;;;;;;5071042;28;20226;-71
2022/10/23 02:42:44;;;;;;;1.83;1.60;;;22.90;99.90;;;;;;5071422;28;20259;-71
2022/10/23 02:45:23;;;;;;;1.30;1.10;;;23.20;99.90;;;;;;5070903;28;20257;-70
2022/10/23 02:47:53;;;;;;;1.93;1.23;;;23.60;99.90;;;;;;5089416;28;20186;-73
2022/10/23 02:50:26;;;;;;;1.53;1.30;;;23.70;99.90;;;;;;5091600;28;20243;-72
2022/10/23 02:53:06;;;;;;;3.63;1.53;;;23.70;99.90;;;;;;5091280;28;20179;-73
2022/10/23 02:55:42;;;;;;;3.43;1.97;;;24.10;99.90;;;;;;5081785;28;20179;-72
2022/10/23 02:58:36;;;;;;;3.20;1.70;;;24.10;99.90;;;;;;5091258;28;20648;-73
2022/10/23 03:01:11;;;;;;;2.67;1.50;;;24.40;99.90;;;;;;5072133;28;20238;-72
2022/10/23 03:03:58;;;;;;;2.33;1.33;;;24.70;99.90;;;;;;5091007;28;20623;-69
2022/10/23 03:06:26;;;;;;;2.80;1.57;;;24.40;99.90;;;;;;5090438;28;20198;-70
2022/10/23 03:09:07;;;;;;;3.07;1.50;;;24.30;99.90;;;;;;5091015;28;20188;-71
2022/10/23 03:11:35;;;;;;;4.27;1.00;;;24.20;99.90;;;;;;5091087;28;20183;-73
2022/10/23 03:14:02;;;;;;;2.73;1.40;;;24.50;99.90;;;;;;5076696;28;20273;-70
2022/10/23 03:16:30;;;;;;;2.67;1.80;;;24.30;99.90;;;;;;5085513;28;20214;-72
2022/10/23 03:18:57;;;;;;;2.00;1.70;;;24.20;99.90;;;;;;5079646;28;20168;-71
2022/10/23 03:21:25;;;;;;;3.77;1.90;;;23.90;99.90;;;;;;5078016;28;20210;-70
2022/10/23 03:23:52;;;;;;;4.63;1.87;;;23.80;99.90;;;;;;5094276;28;20263;-71
2022/10/23 03:26:20;;;;;;;3.07;1.83;;;23.80;99.90;;;;;;5087114;28;20615;-70
2022/10/23 03:28:47;;;;;;;8.47;2.10;;;23.90;99.90;;;;;;5078638;28;20172;-71
2022/10/23 03:31:14;;;;;;;4.70;1.63;;;24.10;99.90;;;;;;5057956;28;20556;-72
2022/10/23 03:33:42;;;;;;;2.10;1.50;;;24.20;99.90;;;;;;5074519;28;20205;-72
2022/10/23 03:36:09;;;;;;;2.23;1.60;;;24.20;99.90;;;;;;5074956;28;20180;-72
2022/10/23 03:38:37;;;;;;;3.07;1.60;;;23.80;99.90;;;;;;5073711;28;20617;-72
2022/10/23 03:41:04;;;;;;;2.60;1.20;;;23.80;99.90;;;;;;5073765;28;20216;-71
2022/10/23 03:43:32;;;;;;;3.47;1.40;;;23.60;99.90;;;;;;5073829;28;20183;-71
2022/10/23 03:46:00;;;;;;;5.87;1.47;;;23.40;99.90;;;;;;5073791;28;20709;-71
2022/10/23 03:48:28;;;;;;;3.77;1.10;;;23.40;99.90;;;;;;5073900;28;20232;-70
2022/10/23 03:50:55;;;;;;;3.63;1.33;;;23.50;99.90;;;;;;5073698;28;20552;-70
2022/10/23 03:53:23;;;;;;;1.97;0.93;;;23.40;99.90;;;;;;5085193;28;20297;-71
2022/10/23 03:55:50;;;;;;;4.43;1.00;;;23.70;99.90;;;;;;5093478;28;20187;-72
2022/10/23 03:58:17;;;;;;;2.93;1.00;;;23.80;99.90;;;;;;5093857;28;20272;-71
2022/10/23 04:00:45;;;;;;;1.50;0.90;;;23.70;99.90;;;;;;5093063;28;20239;-70
2022/10/23 04:03:12;;;;;;;2.17;1.10;;;23.70;99.90;;;;;;5084152;28;20191;-69
2022/10/23 04:05:42;;;;;;;3.43;1.20;;;24.00;99.90;;;;;;5073341;28;20539;-72
2022/10/23 04:08:10;;;;;;;2.00;1.10;;;24.10;99.90;;;;;;5073408;28;20179;-70
2022/10/23 04:10:37;;;;;;;5.43;1.63;;;24.10;99.90;;;;;;5055160;28;20252;-71
2022/10/23 04:13:04;;;;;;;2.20;1.27;;;24.10;99.90;;;;;;5090109;28;20194;-71
2022/10/23 04:15:32;;;;;;;2.97;1.40;;;23.80;99.90;;;;;;5093437;28;20513;-70
2022/10/23 04:17:59;;;;;;;3.43;1.23;;;23.40;99.90;;;;;;5093146;28;20190;-72
2022/10/23 04:20:26;;;;;;;1.73;1.10;;;23.10;99.90;;;;;;5076685;28;20225;-71
2022/10/23 04:22:54;;;;;;;2.60;1.50;;;22.80;99.90;;;;;;5072967;28;20202;-70
2022/10/23 04:25:21;;;;;;;2.90;1.20;;;22.40;99.90;;;;;;5070926;28;20550;-72
2022/10/23 04:27:49;;;;;;;3.80;1.40;;;22.10;99.90;;;;;;5092834;28;20542;-73
2022/10/23 04:30:16;;;;;;;2.63;1.50;;;21.80;99.90;;;;;;5081433;28;20197;-72
2022/10/23 04:32:44;;;;;;;1.87;1.37;;;21.40;99.90;;;;;;5072902;28;20192;-70
2022/10/23 04:35:11;;;;;;;5.70;1.70;;;21.10;99.90;;;;;;5073084;28;20191;-71
2022/10/23 04:37:38;;;;;;;2.60;1.70;;;20.90;99.90;;;;;;5073048;28;20229;-72
2022/10/23 04:40:06;;;;;;;5.27;1.87;;;20.70;99.90;;;;;;5078841;28;20257;-71
2022/10/23 04:42:34;;;;;;;3.57;2.10;;;20.50;99.90;;;;;;5076150;28;20191;-71
2022/10/23 04:45:01;;;;;;;4.17;2.10;;;20.40;99.90;;;;;;5072691;28;20208;-70
2022/10/23 04:47:29;;;;;;;4.77;2.30;;;20.40;99.90;;;;;;5083561;28;20181;-71
2022/10/23 04:49:56;;;;;;;3.77;2.03;;;20.40;99.90;;;;;;5092958;28;20229;-70
2022/10/23 04:52:24;;;;;;;4.70;2.20;;;20.30;99.90;;;;;;5092723;28;20192;-71
2022/10/23 04:54:51;;;;;;;2.53;2.27;;;20.30;99.90;;;;;;5092795;28;20187;-71
2022/10/23 04:57:21;;;;;;;3.90;2.30;;;20.30;99.90;;;;;;5082353;28;20184;-72
2022/10/23 04:59:49;;;;;;;8.70;2.53;;;20.10;99.90;;;;;;5072391;28;20207;-71
2022/10/23 05:02:16;;;;;;;6.70;2.70;;;20.00;99.90;;;;;;5072208;28;20306;-72
2022/10/23 05:04:44;;;;;;;6.20;2.80;;;19.90;99.90;;;;;;5072284;28;20180;-69
2022/10/23 05:07:11;;;;;;;6.60;2.73;;;19.90;99.90;;;;;;5072392;28;20180;-71
2022/10/23 05:09:38;;;;;;;5.60;2.50;;;19.90;99.90;;;;;;5072173;28;20207;-70
2022/10/23 05:12:06;;;;;;;5.27;2.77;;;19.80;99.90;;;;;;5072161;28;20197;-71
2022/10/23 05:14:33;;;;;;;5.23;2.70;;;19.80;99.90;;;;;;5081917;28;20208;-71
2022/10/23 05:17:14;;;;;;;5.07;2.90;;;19.60;99.90;;;;;;5082742;28;20187;-71
2022/10/23 05:20:05;;;;;;;6.60;3.03;;;19.50;99.90;;;;;;5072132;28;20241;-71
2022/10/23 05:22:36;;;;;;;6.57;2.40;;;19.50;99.90;;;;;;5071963;28;20211;-72
2022/10/23 05:25:05;;;;;;;7.33;3.57;;;19.40;99.90;;;;;;5071941;28;20175;-71
2022/10/23 05:27:32;;;;;;;8.20;3.37;;;19.40;99.90;;;;;;5072181;28;20184;-71
2022/10/23 05:30:01;;;;;;;4.43;2.80;;;19.40;99.90;;;;;;5071809;28;20201;-68
2022/10/23 05:32:31;;;;;;;8.73;3.43;;;19.30;99.90;;;;;;5071893;28;20172;-72
2022/10/23 05:35:00;;;;;;;6.23;3.30;;;19.30;99.90;;;;;;5071051;28;20253;-71
2022/10/23 05:37:28;;;;;;;7.10;3.13;;;19.30;99.90;;;;;;5081195;28;20564;-72
2022/10/23 05:39:56;;;;;;;5.40;3.23;;;19.30;99.90;;;;;;5092106;28;20309;-72
2022/10/23 05:42:23;;;;;;;7.23;3.33;;;19.20;99.90;;;;;;5084549;28;20179;-71
2022/10/23 05:44:51;;;;;;;10.47;3.83;;;19.20;99.90;;;;;;5071507;28;20172;-72
2022/10/23 05:47:18;;;;;;;13.73;3.87;;;19.20;99.90;;;;;;5079945;28;20179;-71
2022/10/23 05:49:46;;;;;;;10.30;3.93;;;19.20;99.90;;;;;;5091880;28;20174;-71
2022/10/23 05:52:13;;;;;;;10.10;4.40;;;19.00;99.90;;;;;;5091935;28;20226;-70
2022/10/23 05:54:41;;;;;;;17.00;4.80;;;18.90;99.90;;;;;;5091759;28;20185;-72
2022/10/23 05:57:08;;;;;;;9.43;4.40;;;18.90;99.90;;;;;;5085007;28;20187;-73
2022/10/23 05:59:36;;;;;;;13.83;4.70;;;18.90;99.90;;;;;;5071439;28;20207;-72
2022/10/23 06:02:03;;;;;;;10.83;5.40;;;18.80;99.90;;;;;;5071433;28;20677;-71
2022/10/23 06:04:31;;;;;;;14.03;4.47;;;18.80;99.90;;;;;;5071353;28;20582;-71
2022/10/23 06:06:58;;;;;;;18.63;4.57;;;18.70;99.90;;;;;;5076566;28;20734;-72
2022/10/23 06:09:25;;;;;;;18.70;5.13;;;18.80;99.90;;;;;;5091605;28;20178;-71
2022/10/23 06:11:53;;;;;;;13.83;4.87;;;18.70;99.90;;;;;;5072631;28;20180;-71
2022/10/23 06:14:20;;;;;;;14.70;4.73;;;18.80;99.90;;;;;;5083393;28;20179;-71
2022/10/23 06:16:48;;;;;;;8.90;4.20;;;18.80;99.90;;;;;;5091171;28;20181;-70
2022/10/23 06:19:15;;;;;;;15.17;5.00;;;18.90;99.90;;;;;;5084809;28;20194;-71
2022/10/23 06:21:43;;;;;;;15.83;4.73;;;18.80;99.90;;;;;;5071524;28;20645;-70
2022/10/23 06:24:10;;;;;;;17.63;5.27;;;18.80;99.90;;;;;;5080701;28;20620;-71
2022/10/23 06:26:37;;;;;;;11.90;4.30;;;18.80;99.90;;;;;;5091447;28;20262;-70
2022/10/23 06:29:05;;;;;;;18.13;5.10;;;18.80;99.90;;;;;;5091616;28;20167;-70
2022/10/23 06:31:32;;;;;;;12.97;4.20;;;18.90;99.90;;;;;;5091655;28;20171;-71
2022/10/23 06:34:00;;;;;;;12.43;4.23;;;18.80;99.90;;;;;;5090890;28;20182;-70
2022/10/23 06:36:27;;;;;;;7.47;3.73;;;18.90;99.90;;;;;;5091201;28;20191;-70
2022/10/23 06:38:55;;;;;;;13.77;4.07;;;18.90;99.90;;;;;;5091434;28;20177;-70
2022/10/23 06:41:23;;;;;;;12.40;4.00;;;19.00;99.90;;;;;;5089443;28;20277;-69
2022/10/23 06:43:52;;;;;;;9.60;4.10;;;19.00;99.90;;;;;;5090220;28;20175;-70
2022/10/23 06:46:20;;;;;;;14.10;4.70;;;19.00;99.90;;;;;;5090637;28;20184;-67
2022/10/23 06:48:47;;;;;;;12.23;4.30;;;19.00;99.90;;;;;;5095013;28;20175;-70
2022/10/23 06:51:17;;;;;;;10.93;4.03;;;19.00;99.90;;;;;;5062440;28;20686;-70
2022/10/23 06:53:45;;;;;;;14.13;4.50;;;19.10;99.90;;;;;;5081781;28;20551;-68
2022/10/23 06:56:12;;;;;;;14.17;4.00;;;19.00;99.90;;;;;;5093292;28;20235;-70
2022/10/23 06:58:40;;;;;;;9.90;4.20;;;19.00;99.90;;;;;;5076301;28;20651;-71
2022/10/23 07:01:11;;;;;;;12.40;3.80;;;19.00;99.90;;;;;;5094825;28;20234;-71
2022/10/23 07:03:38;;;;;;;13.43;4.23;;;19.00;99.90;;;;;;5086983;28;20191;-71
2022/10/23 07:06:08;;;;;;;18.20;4.20;;;18.90;99.90;;;;;;5074545;28;20192;-72
2022/10/23 07:08:36;;;;;;;11.23;3.80;;;19.00;99.90;;;;;;5077287;28;20175;-71
2022/10/23 07:11:05;;;;;;;12.80;3.80;;;19.00;99.90;;;;;;5093938;28;20258;-69
2022/10/23 07:13:35;;;;;;;12.37;3.70;;;19.00;99.90;;;;;;5087547;28;20179;-71
2022/10/23 07:16:14;;;;;;;6.13;3.30;;;19.00;99.90;;;;;;5094202;28;20190;-70
2022/10/23 07:18:42;;;;;;;14.33;3.97;;;19.00;99.90;;;;;;5094963;28;20172;-70
2022/10/23 07:21:09;;;;;;;7.40;3.23;;;18.90;99.90;;;;;;5076233;28;20639;-70
2022/10/23 07:23:37;;;;;;;12.87;4.07;;;19.00;99.90;;;;;;5086931;28;20261;-70
2022/10/23 07:26:14;;;;;;;14.43;3.73;;;19.00;99.90;;;;;;5055947;28;20237;-70
2022/10/23 07:28:44;;;;;;;12.13;3.47;;;18.90;99.90;;;;;;5074126;28;20764;-70
2022/10/23 07:31:12;;;;;;;13.60;3.90;;;18.90;99.90;;;;;;5056142;28;20546;-70
2022/10/23 07:33:39;;;;;;;13.07;3.47;;;18.90;99.90;;;;;;5080757;28;20651;-71
2022/10/23 07:36:09;;;;;;;12.30;3.60;;;18.90;99.90;;;;;;5090402;28;20207;-70
2022/10/23 07:38:36;;;;;;;13.70;3.43;;;18.80;99.90;;;;;;5074533;28;20261;-69
2022/10/23 07:41:04;;;;;;;11.27;3.53;;;18.90;99.90;;;;;;5077861;28;20219;-70
2022/10/23 07:43:32;;;;;;;11.63;3.47;;;18.90;99.90;;;;;;5073975;28;20179;-70
2022/10/23 07:46:00;;;;;;;11.57;3.33;;;18.90;99.90;;;;;;5078089;28;20271;-71
2022/10/23 07:48:28;;;;;;;8.90;3.90;;;18.90;99.90;;;;;;5094069;28;20178;-70
2022/10/23 07:51:09;;;;;;;12.33;3.77;;;18.80;99.90;;;;;;5094050;28;20636;-70
2022/10/23 07:53:38;;;;;;;13.17;3.80;;;18.90;99.90;;;;;;5093536;28;20213;-72
2022/10/23 07:56:14;;;;;;;12.20;3.80;;;18.90;99.90;;;;;;5092840;28;20180;-70
2022/10/23 07:58:42;;;;;;;11.20;3.70;;;18.90;99.90;;;;;;5093620;28;20169;-70
2022/10/23 08:01:19;;;;;;;11.97;3.87;;;18.90;99.90;;;;;;5092596;28;20392;-70
2022/10/23 08:03:47;;;;;;;9.70;3.40;;;18.80;99.90;;;;;;5079747;28;20183;-69
2022/10/23 08:06:14;;;;;;;16.90;3.93;;;18.90;99.90;;;;;;5078931;28;20192;-70
2022/10/23 08:08:42;;;;;;;12.37;3.00;;;18.80;99.90;;;;;;5074615;28;20271;-68
2022/10/23 08:11:15;;;;;;;16.73;4.10;;;18.80;99.90;;;;;;5093771;28;20182;-70
2022/10/23 08:13:43;;;;;;;13.37;3.77;;;18.80;99.90;;;;;;5088874;28;20179;-69
2022/10/23 08:16:10;;;;;;;17.07;3.97;;;18.70;99.90;;;;;;5086570;28;20198;-72
2022/10/23 08:18:40;;;;;;;9.07;3.33;;;18.70;99.90;;;;;;5093198;28;20180;-70
2022/10/23 08:21:07;;;;;;;10.13;3.40;;;18.60;99.90;;;;;;5083365;28;20216;-71
2022/10/23 08:23:35;;;;;;;13.37;4.00;;;18.60;99.90;;;;;;5072959;28;20260;-72
2022/10/23 08:26:06;;;;;;;11.63;3.20;;;18.60;99.90;;;;;;5075265;28;20183;-72
2022/10/23 08:28:34;;;;;;;8.27;3.37;;;18.60;99.90;;;;;;5084855;28;20274;-71
2022/10/23 08:31:16;;;;;;;10.17;3.37;;;18.60;99.90;;;;;;5093179;28;20587;-71
2022/10/23 08:33:44;;;;;;;7.57;2.30;;;18.60;99.90;;;;;;5085158;28;20187;-70
2022/10/23 08:36:20;;;;;;;14.07;3.30;;;18.60;99.90;;;;;;5078397;28;20273;-71
2022/10/23 08:38:48;;;;;;;15.70;3.50;;;18.60;99.90;;;;;;5093180;28;20257;-71
2022/10/23 08:41:39;;;;;;;7.57;2.80;;;18.60;99.90;;;;;;5093118;28;20218;-71
2022/10/23 08:44:28;;;;;;;8.43;2.47;;;18.50;99.90;;;;;;5092612;28;20338;-70
2022/10/23 08:47:24;;;;;;;11.50;2.70;;;18.50;99.90;;;;;;5066851;28;20198;-70
2022/10/23 08:50:02;;;;;;;6.20;2.77;;;18.50;99.90;;;;;;5092691;28;20172;-71
2022/10/23 08:53:12;;;;;;;12.07;3.43;;;18.50;99.90;;;;;;5091155;28;20265;-71
2022/10/23 08:55:48;;;;;;;18.10;3.67;;;18.50;99.90;;;;;;5062259;28;20190;-70
2022/10/23 08:58:35;;;;;;;5.83;2.80;;;18.50;99.90;;;;;;5072525;28;20176;-70
2022/10/23 09:01:27;;;;;;;8.33;2.43;;;18.50;99.90;;;;;;5080314;28;20231;-70
2022/10/23 09:03:55;;;;;;;8.93;2.77;;;18.50;99.90;;;;;;5072259;28;20207;-72
2022/10/23 09:07:02;;;;;;;9.20;2.80;;;18.50;99.90;;;;;;5082828;28;20183;-70
2022/10/23 09:09:33;;;;;;;9.80;3.23;;;18.50;99.90;;;;;;5071725;28;20664;-70
2022/10/23 09:12:09;;;;;;;9.73;3.10;;;18.50;99.90;;;;;;5072459;28;20173;-70
2022/10/23 09:14:42;;;;;;;9.97;3.33;;;18.50;99.90;;;;;;5072247;28;20183;-70
2022/10/23 09:17:26;;;;;;;12.60;3.47;;;18.50;99.90;;;;;;5087413;28;20182;-70
2022/10/23 09:20:17;;;;;;;7.23;2.33;;;18.50;99.90;;;;;;5092499;28;20203;-71
2022/10/23 09:22:46;;;;;;;8.07;3.30;;;18.50;99.90;;;;;;5072197;28;20597;-70
2022/10/23 09:25:24;;;;;;;10.23;3.33;;;18.50;99.90;;;;;;5073554;28;20848;-71
2022/10/23 09:27:54;;;;;;;11.80;3.50;;;18.60;99.90;;;;;;5088811;28;20188;-71
2022/10/23 09:30:35;;;;;;;10.27;2.80;;;18.50;99.90;;;;;;5092404;28;20171;-71
2022/10/23 09:33:26;;;;;;;10.13;2.70;;;18.50;99.90;;;;;;5091457;28;20206;-73
2022/10/23 09:36:00;;;;;;;13.33;3.03;;;18.50;99.90;;;;;;5087023;28;20191;-72
2022/10/23 09:38:34;;;;;;;8.23;2.83;;;18.50;99.90;;;;;;5072689;28;20166;-71
2022/10/23 09:41:28;;;;;;;8.77;2.90;;;18.50;99.90;;;;;;5072008;28;20302;-72
2022/10/23 09:44:02;;;;;;;8.07;3.07;;;18.40;99.90;;;;;;5068419;28;20199;-73
2022/10/23 09:46:53;;;;;;;12.03;2.50;;;18.40;99.90;;;;;;5080575;28;20274;-72
2022/10/23 09:49:29;;;;;;;7.00;2.90;;;18.40;99.90;;;;;;5091894;28;20175;-71
2022/10/23 09:52:12;;;;;;;10.30;3.17;;;18.40;99.90;;;;;;5081290;28;20252;-72
2022/10/23 09:54:49;;;;;;;7.50;2.67;;;18.40;99.90;;;;;;5071914;28;20179;-71
2022/10/23 09:57:39;;;;;;;8.80;2.60;;;18.40;99.90;;;;;;5088477;28;20644;-71
2022/10/23 10:00:20;;;;;;;8.10;2.57;;;18.30;99.90;;;;;;5093021;28;20221;-71
2022/10/23 10:03:00;;;;;;;9.50;3.07;;;18.30;99.90;;;;;;5087823;28;20187;-71
2022/10/23 10:05:34;;;;;;;7.93;2.93;;;18.30;99.90;;;;;;5073001;28;20233;-71
2022/10/23 10:08:10;;;;;;;11.60;2.83;;;18.30;99.90;;;;;;5093413;28;20179;-72
2022/10/23 10:10:47;;;;;;;14.17;3.97;;;18.20;99.90;;;;;;5093891;28;20178;-71
2022/10/23 10:13:58;;;;;;;8.33;3.37;;;18.10;99.90;;;;;;5093019;28;20644;-73
2022/10/23 10:16:43;;;;;;;9.27;3.10;;;18.10;99.90;;;;;;5084625;28;20226;-73
2022/10/23 10:19:51;;;;;;;7.03;2.77;;;18.10;99.90;;;;;;5079922;28;20202;-72
2022/10/23 10:22:28;;;;;;;5.57;2.43;;;18.10;99.90;;;;;;5055455;28;20201;-73
2022/10/23 10:25:08;;;;;;;7.63;3.00;;;18.00;99.90;;;;;;5086886;28;20164;-71
2022/10/23 10:27:45;;;;;;;7.13;2.50;;;18.00;99.90;;;;;;5076937;28;20180;-72
2022/10/23 10:30:20;;;;;;;7.07;2.67;;;17.90;99.90;;;;;;5077196;28;20171;-72
2022/10/23 10:32:58;;;;;;;11.50;3.47;;;17.90;99.90;;;;;;5086158;28;20177;-70
2022/10/23 10:35:52;;;;;;;11.70;2.80;;;17.90;99.90;;;;;;5077971;28;20182;-72
2022/10/23 10:38:40;;;;;;;9.37;2.90;;;17.90;99.90;;;;;;5076625;28;20263;-71
2022/10/23 10:41:36;;;;;;;6.93;3.10;;;17.90;99.90;;;;;;5076879;28;20216;-70
2022/10/23 10:44:15;;;;;;;9.70;3.20;;;17.80;99.90;;;;;;5076691;28;20186;-71
2022/10/23 10:46:46;;;;;;;11.27;2.77;;;17.80;99.90;;;;;;5078726;28;20273;-71
2022/10/23 10:49:54;;;;;;;7.57;2.87;;;17.80;99.90;;;;;;5096939;28;20179;-71
2022/10/23 10:52:32;;;;;;;9.27;2.80;;;17.80;99.90;;;;;;5083902;28;20239;-72
2022/10/23 10:55:27;;;;;;;6.40;2.80;;;17.80;99.90;;;;;;5096483;28;20589;-71
2022/10/23 10:58:31;;;;;;;10.60;2.97;;;17.80;99.90;;;;;;5086787;28;20238;-72
2022/10/23 11:01:01;;;;;;;8.50;2.83;;;17.80;99.90;;;;;;5076177;28;20234;-72
2022/10/23 11:03:46;;;;;;;11.40;3.43;;;17.80;99.90;;;;;;5076128;28;20182;-69
2022/10/23 11:06:19;;;;;;;12.60;3.20;;;17.90;99.90;;;;;;5076297;28;20649;-71
2022/10/23 11:08:47;;;;;;;6.97;2.83;;;17.80;99.90;;;;;;5089946;28;20218;-71
2022/10/23 11:11:43;;;;;;;8.13;3.63;;;17.80;99.90;;;;;;5096543;28;20539;-72
2022/10/23 11:14:23;;;;;;;12.67;4.07;;;17.80;99.90;;;;;;5095824;28;20270;-70
2022/10/23 11:17:15;;;;;;;7.07;3.20;;;17.70;99.90;;;;;;5075942;28;20180;-72
2022/10/23 11:19:57;;;;;;;9.40;3.30;;;17.80;99.90;;;;;;5065491;28;20226;-71
2022/10/23 11:22:56;;;;;;;12.33;4.13;;;17.80;99.90;;;;;;5059978;28;20547;-71
2022/10/23 11:25:30;;;;;;;11.50;3.13;;;17.80;99.90;;;;;;5075774;28;20182;-71
2022/10/23 11:28:18;;;;;;;11.17;3.53;;;17.70;99.90;;;;;;5076078;28;20176;-71
2022/10/23 11:31:04;;;;;;;11.07;4.10;;;17.70;99.90;;;;;;5076036;28;20168;-72
2022/10/23 11:34:10;;;;;;;12.47;3.87;;;17.70;99.90;;;;;;5071334;28;20186;-71
2022/10/23 11:36:41;;;;;;;12.40;3.70;;;17.70;99.90;;;;;;5095659;28;20201;-71
2022/10/23 11:39:22;;;;;;;12.43;3.83;;;17.70;99.90;;;;;;5096347;28;20183;-70
2022/10/23 11:42:00;;;;;;;11.03;3.33;;;17.60;99.90;;;;;;5095513;28;20234;-71
2022/10/23 11:44:42;;;;;;;9.70;3.20;;;17.60;99.90;;;;;;5075488;28;20248;-71
2022/10/23 11:47:35;;;;;;;10.40;4.03;;;17.60;99.90;;;;;;5075873;28;21442;-71
2022/10/23 11:50:09;;;;;;;11.43;3.77;;;17.60;99.90;;;;;;5075577;28;20168;-71
2022/10/23 11:52:51;;;;;;;8.23;3.47;;;17.60;99.90;;;;;;5075790;28;20220;-72
2022/10/23 11:55:29;;;;;;;8.27;3.10;;;17.70;99.90;;;;;;5075435;28;20164;-71
2022/10/23 11:58:18;;;;;;;10.40;3.10;;;17.70;99.90;;;;;;5093012;28;20182;-71
2022/10/23 12:01:05;;;;;;;9.70;3.00;;;17.70;99.90;;;;;;5094259;28;20699;-70
2022/10/23 12:04:00;;;;;;;10.67;3.83;;;17.70;99.90;;;;;;5077313;28;20271;-71
2022/10/23 12:06:38;;;;;;;10.83;3.97;;;17.60;99.90;;;;;;5089497;28;20271;-71
2022/10/23 12:09:29;;;;;;;11.63;3.50;;;17.70;99.90;;;;;;5087523;28;20553;-72
2022/10/23 12:12:03;;;;;;;15.67;4.33;;;17.70;99.90;;;;;;5046934;28;20264;-72
2022/10/23 12:15:01;;;;;;;9.43;3.77;;;17.70;99.90;;;;;;5095218;28;20175;-71
2022/10/23 12:17:40;;;;;;;10.53;3.20;;;17.70;99.90;;;;;;5077370;28;20205;-71
2022/10/23 12:20:14;;;;;;;9.73;3.07;;;17.70;99.90;;;;;;5056780;28;20215;-71
2022/10/23 12:23:05;;;;;;;10.17;3.43;;;17.70;99.90;;;;;;5057005;28;20180;-72
2022/10/23 12:25:54;;;;;;;7.63;3.20;;;17.70;99.90;;;;;;5074669;28;20255;-71
2022/10/23 12:28:37;;;;;;;8.53;3.77;;;17.70;99.90;;;;;;5075389;28;20176;-72
2022/10/23 12:31:41;;;;;;;8.97;2.67;;;17.70;99.90;;;;;;5074631;28;20172;-71
2022/10/23 12:34:39;;;;;;;8.47;3.30;;;17.70;99.90;;;;;;5075779;28;20181;-71
2022/10/23 12:37:44;;;;;;;8.33;3.80;;;17.70;99.90;;;;;;5084588;28;20540;-71
2022/10/23 12:40:12;;;;;;;12.07;3.10;;;17.70;99.90;;;;;;5094769;28;20589;-71
2022/10/23 12:42:40;;;;;;;9.70;3.73;;;17.80;99.90;;;;;;5086558;28;20179;-69
2022/10/23 12:45:20;;;;;;;9.47;2.80;;;17.80;99.90;;;;;;5056138;28;20226;-70
2022/10/23 12:47:49;;;;;;;16.33;3.40;;;17.80;99.90;;;;;;5091214;28;20167;-71
2022/10/23 12:50:20;;;;;;;14.00;4.03;;;17.90;99.90;;;;;;5094213;28;20195;-71
2022/10/23 12:53:06;;;;;;;15.67;4.23;;;17.90;99.90;;;;;;5094584;28;20171;-70
2022/10/23 12:56:00;;;;;;;6.93;2.73;;;17.90;99.90;;;;;;5094457;28;20167;-71
2022/10/23 12:58:31;;;;;;;8.37;2.47;;;18.00;99.90;;;;;;5074139;28;20176;-70
2022/10/23 13:01:02;;;;;;;10.17;2.63;;;18.00;99.90;;;;;;5073804;28;20223;-71
2022/10/23 13:03:32;;;;;;;9.57;2.23;;;18.00;99.90;;;;;;5092211;28;20183;-71
2022/10/23 13:06:02;;;;;;;8.83;2.70;;;18.00;99.90;;;;;;5091744;28;20175;-70
2022/10/23 13:08:45;;;;;;;12.93;2.33;;;18.10;99.90;;;;;;5073910;28;20175;-71
2022/10/23 13:11:19;;;;;;;9.00;2.37;;;18.10;99.90;;;;;;5073860;28;20176;-71
2022/10/23 13:13:48;;;;;;;10.07;2.50;;;18.10;99.90;;;;;;5073940;28;20705;-70
2022/10/23 13:16:19;;;;;;;10.27;2.63;;;18.10;99.90;;;;;;5077352;28;20194;-70
2022/10/23 13:18:47;;;;;;;7.83;2.73;;;18.10;99.90;;;;;;5094468;28;20183;-71
2022/10/23 13:21:24;;;;;;;5.23;2.00;;;18.10;99.90;;;;;;5093822;28;20305;-72
2022/10/23 13:23:53;;;;;;;8.57;2.27;;;18.10;99.90;;;;;;5085332;28;20172;-71